Time;durP1;ratioP1;P1;durP2;ratioP2;P2;SDS_P1;SDS_P2;PMS_P1;PMS_P2;Temp;Humidity;BMP_temperature;BMP_pressure;BME280_temperature;BME280_humidity;BME280_pressure;Samples;Min_cycle;Max_cycle;Signal;HPM_P1;HPM_P2
2020/10/18 00:01:00;;;;;;;;;7.25;7.00;;;;;;;;3724867;38;18496;-55
2020/10/18 00:03:26;;;;;;;;;8.25;8.00;;;;;;;;3724626;38;18502;-55
2020/10/18 00:05:52;;;;;;;;;5.25;5.00;;;;;;;;3725302;37;18478;-53
2020/10/18 05:09:19;;;;;;;;;6.25;5.00;;;;;;;;3729430;37;38224;-62
2020/10/18 05:12:05;;;;;;;;;7.00;5.25;;;;;;;;3729038;37;20896;-64
2020/10/18 05:14:50;;;;;;;;;3.00;3.00;;;;;;;;3728841;37;20819;-64
2020/10/18 05:17:24;;;;;;;;;4.50;4.50;;;;;;;;3728739;38;20857;-64
2020/10/18 05:20:16;;;;;;;;;6.50;4.75;;;;;;;;3728952;37;20837;-64
2020/10/18 05:22:57;;;;;;;;;5.50;4.25;;;;;;;;3728705;38;20865;-65
2020/10/18 05:25:49;;;;;;;;;5.50;4.50;;;;;;;;3728487;38;20845;-62
2020/10/18 05:28:40;;;;;;;;;5.25;5.25;;;;;;;;3728763;38;20839;-62
2020/10/18 05:31:08;;;;;;;;;4.75;4.25;;;;;;;;3728916;38;20827;-62
2020/10/18 05:33:51;;;;;;;;;4.00;3.75;;;;;;;;3728770;37;20803;-61
2020/10/18 05:36:40;;;;;;;;;5.00;4.00;;;;;;;;3728527;37;20798;-63
2020/10/18 05:39:22;;;;;;;;;4.50;4.00;;;;;;;;3728839;37;21071;-67
2020/10/18 05:41:54;;;;;;;;;5.25;4.75;;;;;;;;3728367;37;21059;-64
2020/10/18 05:44:20;;;;;;;;;5.25;5.00;;;;;;;;3728674;38;21056;-63
2020/10/18 05:46:59;;;;;;;;;12.25;7.25;;;;;;;;3728802;37;21066;-60
2020/10/18 05:49:27;;;;;;;;;6.50;6.00;;;;;;;;3728812;38;18279;-62
2020/10/18 05:51:55;;;;;;;;;6.00;5.00;;;;;;;;3728865;38;21054;-64
2020/10/18 05:54:21;;;;;;;;;7.00;5.00;;;;;;;;3728644;38;21091;-62
2020/10/18 05:57:03;;;;;;;;;6.00;5.50;;;;;;;;3728530;37;21086;-62
2020/10/18 05:59:37;;;;;;;;;5.50;3.00;;;;;;;;3728606;38;21088;-61
2020/10/18 06:02:03;;;;;;;;;7.00;6.00;;;;;;;;3728510;37;21055;-62
2020/10/18 06:04:38;;;;;;;;;9.00;8.00;;;;;;;;3728640;38;21079;-61
2020/10/18 06:07:11;;;;;;;;;10.00;7.50;;;;;;;;3728594;38;21069;-62
2020/10/18 06:09:49;;;;;;;;;7.00;6.00;;;;;;;;3728651;38;21016;-62
2020/10/18 06:12:37;;;;;;;;;8.50;6.75;;;;;;;;3728835;37;20987;-63
2020/10/18 06:15:11;;;;;;;;;11.00;9.00;;;;;;;;3728639;37;20998;-66
2020/10/18 06:17:49;;;;;;;;;11.25;10.75;;;;;;;;3729033;37;21039;-62
2020/10/18 06:20:29;;;;;;;;;7.50;6.25;;;;;;;;3728362;37;20999;-63
2020/10/18 06:22:57;;;;;;;;;12.25;10.75;;;;;;;;3728561;37;20996;-64
2020/10/18 06:25:48;;;;;;;;;13.00;12.00;;;;;;;;3728424;37;21025;-66
2020/10/18 06:28:20;;;;;;;;;17.25;11.25;;;;;;;;3728556;38;21045;-61
2020/10/18 06:30:47;;;;;;;;;21.00;14.75;;;;;;;;3728489;38;21012;-63
2020/10/18 06:33:32;;;;;;;;;18.75;13.25;;;;;;;;3728366;37;21042;-62
2020/10/18 06:36:09;;;;;;;;;13.75;12.75;;;;;;;;3728703;38;21061;-69
2020/10/18 06:38:36;;;;;;;;;15.25;13.00;;;;;;;;3728896;37;21005;-70
2020/10/18 06:41:05;;;;;;;;;13.75;12.50;;;;;;;;3728892;37;21018;-67
2020/10/18 06:43:31;;;;;;;;;12.50;12.00;;;;;;;;3728702;38;21019;-68
2020/10/18 06:46:05;;;;;;;;;10.25;6.50;;;;;;;;3729002;38;21020;-69
2020/10/18 06:48:33;;;;;;;;;10.75;10.00;;;;;;;;3728414;37;20962;-67
2020/10/18 06:51:07;;;;;;;;;12.25;9.50;;;;;;;;3729081;37;20980;-70
2020/10/18 06:53:33;;;;;;;;;12.25;9.75;;;;;;;;3729177;38;20985;-66
2020/10/18 06:55:58;;;;;;;;;13.75;11.00;;;;;;;;3728779;38;20956;-68
2020/10/18 06:58:24;;;;;;;;;14.00;10.00;;;;;;;;3728836;37;18169;-66
2020/10/18 07:00:51;;;;;;;;;10.00;9.00;;;;;;;;3728389;37;18192;-67
2020/10/18 07:03:17;;;;;;;;;14.50;10.00;;;;;;;;3728654;38;18161;-66
2020/10/18 07:05:43;;;;;;;;;11.00;9.25;;;;;;;;3728521;37;20981;-73
2020/10/18 07:08:18;;;;;;;;;10.50;10.25;;;;;;;;3728673;37;20950;-71
2020/10/18 07:10:45;;;;;;;;;11.75;10.50;;;;;;;;3729237;37;20915;-70
2020/10/18 07:13:37;;;;;;;;;11.75;10.50;;;;;;;;3728970;38;20974;-67
2020/10/18 07:16:26;;;;;;;;;10.00;8.75;;;;;;;;3728880;38;20958;-69
2020/10/18 07:18:53;;;;;;;;;9.00;9.00;;;;;;;;3728914;38;20960;-70
2020/10/18 07:21:29;;;;;;;;;14.00;9.75;;;;;;;;3729138;38;20964;-74
2020/10/18 07:23:59;;;;;;;;;9.75;8.50;;;;;;;;3728844;38;20963;-65
2020/10/18 07:26:26;;;;;;;;;7.50;6.00;;;;;;;;3728791;38;20920;-72
2020/10/18 07:28:52;;;;;;;;;7.75;5.50;;;;;;;;3727786;38;20889;-70
2020/10/18 07:31:21;;;;;;;;;8.75;7.00;;;;;;;;3728623;37;20900;-66
2020/10/18 07:33:48;;;;;;;;;7.75;6.00;;;;;;;;3728340;38;20986;-68
2020/10/18 07:36:30;;;;;;;;;9.75;7.25;;;;;;;;3728304;37;20902;-67
2020/10/18 07:38:59;;;;;;;;;10.25;8.00;;;;;;;;3728486;38;20981;-73
2020/10/18 07:41:31;;;;;;;;;11.25;9.25;;;;;;;;3728859;38;20989;-66
2020/10/18 07:43:58;;;;;;;;;9.25;7.50;;;;;;;;3728897;38;20897;-67
2020/10/18 07:46:34;;;;;;;;;9.50;7.75;;;;;;;;3729151;38;20862;-68
2020/10/18 07:49:18;;;;;;;;;11.00;8.75;;;;;;;;3729231;38;20868;-68
2020/10/18 07:52:05;;;;;;;;;12.50;9.25;;;;;;;;3728764;38;20915;-64
2020/10/18 07:54:31;;;;;;;;;13.50;9.50;;;;;;;;3728858;37;20889;-67
2020/10/18 07:57:10;;;;;;;;;18.00;13.00;;;;;;;;3728616;38;20897;-65
2020/10/18 07:59:49;;;;;;;;;16.50;11.75;;;;;;;;3728750;37;20901;-66
2020/10/18 08:02:22;;;;;;;;;17.50;12.75;;;;;;;;3728582;37;20870;-66
2020/10/18 08:04:53;;;;;;;;;12.50;10.25;;;;;;;;3729032;37;20899;-67
2020/10/18 08:07:19;;;;;;;;;12.50;9.00;;;;;;;;3728707;37;20827;-65
2020/10/18 08:09:45;;;;;;;;;12.00;9.50;;;;;;;;3728257;38;20794;-70
2020/10/18 08:12:17;;;;;;;;;21.50;11.25;;;;;;;;3728927;37;18059;-65
2020/10/18 08:14:43;;;;;;;;;14.25;8.50;;;;;;;;3729143;37;18051;-66
2020/10/18 08:17:09;;;;;;;;;16.00;12.25;;;;;;;;3729069;38;20781;-66
2020/10/18 08:19:37;;;;;;;;;12.00;10.00;;;;;;;;3729050;38;20800;-67
2020/10/18 08:22:03;;;;;;;;;15.25;12.25;;;;;;;;3728871;37;20823;-63
2020/10/18 08:24:30;;;;;;;;;18.50;15.00;;;;;;;;3729094;37;20781;-73
2020/10/18 08:26:57;;;;;;;;;19.25;14.25;;;;;;;;3728600;37;18064;-69
2020/10/18 08:29:27;;;;;;;;;13.25;11.00;;;;;;;;3729246;37;20783;-70
2020/10/18 08:31:53;;;;;;;;;16.25;14.00;;;;;;;;3728715;38;20787;-69
2020/10/18 08:34:20;;;;;;;;;14.00;13.00;;;;;;;;3729158;38;18043;-69
2020/10/18 08:36:46;;;;;;;;;14.25;13.00;;;;;;;;3728945;37;20774;-70
2020/10/18 08:39:13;;;;;;;;;17.25;13.00;;;;;;;;3728765;38;20782;-63
2020/10/18 08:41:40;;;;;;;;;16.00;13.00;;;;;;;;3728318;38;20812;-63
2020/10/18 08:44:07;;;;;;;;;15.00;11.75;;;;;;;;3728092;37;20654;-63
2020/10/18 08:46:33;;;;;;;;;17.50;14.00;;;;;;;;3728132;37;20779;-62
2020/10/18 08:48:59;;;;;;;;;13.25;10.75;;;;;;;;3728150;37;20717;-62
2020/10/18 08:51:25;;;;;;;;;13.75;12.00;;;;;;;;3728810;38;18035;-68
2020/10/18 08:53:52;;;;;;;;;13.75;12.75;;;;;;;;3728690;37;20785;-65
2020/10/18 09:01:27;;;;;;;;;14.25;11.00;;;;;;;;3725802;38;64988;-62
2020/10/18 09:03:54;;;;;;;;;17.00;13.00;;;;;;;;3729152;38;20823;-63
2020/10/18 09:06:20;;;;;;;;;16.25;12.75;;;;;;;;3728831;37;20782;-62
2020/10/18 09:08:45;;;;;;;;;16.50;12.50;;;;;;;;3728885;37;20758;-67
2020/10/18 09:11:13;;;;;;;;;16.50;14.25;;;;;;;;3728801;38;18260;-65
2020/10/18 09:13:39;;;;;;;;;15.75;12.50;;;;;;;;3728693;37;20775;-63
2020/10/18 09:16:06;;;;;;;;;14.50;11.75;;;;;;;;3728580;38;20757;-61
2020/10/18 09:18:32;;;;;;;;;16.75;13.00;;;;;;;;3728700;37;20769;-63
2020/10/18 09:20:58;;;;;;;;;21.00;12.25;;;;;;;;3728664;38;20781;-66
2020/10/18 09:23:24;;;;;;;;;17.00;11.75;;;;;;;;3727749;38;18242;-65
2020/10/18 09:25:51;;;;;;;;;14.75;13.00;;;;;;;;3728058;38;20829;-62
2020/10/18 09:28:18;;;;;;;;;16.50;13.25;;;;;;;;3728433;38;18216;-62
2020/10/18 09:30:45;;;;;;;;;14.75;12.50;;;;;;;;3728979;38;20751;-65
2020/10/18 09:33:11;;;;;;;;;18.75;15.50;;;;;;;;3728847;38;18204;-64
2020/10/18 09:35:37;;;;;;;;;16.50;14.00;;;;;;;;3728783;37;20730;-65
2020/10/18 09:38:03;;;;;;;;;27.00;17.00;;;;;;;;3728575;38;20752;-64
2020/10/18 09:40:29;;;;;;;;;22.25;13.25;;;;;;;;3729057;37;18192;-65
2020/10/18 09:42:56;;;;;;;;;14.75;11.00;;;;;;;;3727896;38;20742;-65
2020/10/18 09:45:23;;;;;;;;;21.25;16.50;;;;;;;;3728879;37;20802;-63
2020/10/18 09:47:49;;;;;;;;;17.50;11.25;;;;;;;;3729054;37;20818;-65
2020/10/18 09:50:15;;;;;;;;;14.00;12.25;;;;;;;;3728849;38;18201;-64
2020/10/18 09:52:42;;;;;;;;;19.75;13.50;;;;;;;;3728926;37;18176;-62
2020/10/18 09:55:08;;;;;;;;;17.50;13.00;;;;;;;;3728735;38;20789;-63
2020/10/18 09:57:35;;;;;;;;;17.25;12.00;;;;;;;;3728727;37;20713;-63
2020/10/18 10:00:01;;;;;;;;;20.50;13.25;;;;;;;;3728709;38;20797;-63
2020/10/18 10:02:27;;;;;;;;;11.00;8.25;;;;;;;;3728693;38;20795;-66
2020/10/18 10:04:54;;;;;;;;;12.75;9.00;;;;;;;;3728809;38;18183;-65
2020/10/18 10:07:20;;;;;;;;;12.75;11.25;;;;;;;;3728888;37;18182;-69
2020/10/18 10:22:53;;;;;;;;;10.50;8.50;;;;;;;;3728871;38;39829;-62
2020/10/18 10:25:19;;;;;;;;;11.75;9.75;;;;;;;;3729050;38;20979;-60
2020/10/18 10:27:45;;;;;;;;;15.75;9.50;;;;;;;;3728632;37;21012;-60
2020/10/18 10:30:12;;;;;;;;;10.50;9.75;;;;;;;;3728723;38;18289;-62
2020/10/18 10:32:37;;;;;;;;;12.50;8.75;;;;;;;;3728706;38;18282;-60
2020/10/18 10:35:05;;;;;;;;;10.50;8.50;;;;;;;;3728760;37;21156;-62
2020/10/18 10:37:37;;;;;;;;;8.00;7.00;;;;;;;;3728090;38;18305;-61
2020/10/18 10:40:07;;;;;;;;;9.75;7.50;;;;;;;;3728279;37;21126;-62
2020/10/18 10:42:37;;;;;;;;;12.00;7.50;;;;;;;;3728345;38;21084;-59
2020/10/18 10:45:08;;;;;;;;;11.50;9.50;;;;;;;;3728333;37;21110;-61
2020/10/18 10:47:34;;;;;;;;;8.75;7.75;;;;;;;;3728136;37;21111;-61
2020/10/18 10:50:00;;;;;;;;;10.75;8.25;;;;;;;;3728546;37;21113;-61
2020/10/18 10:52:50;;;;;;;;;12.75;10.00;;;;;;;;3728457;37;18281;-62
2020/10/18 10:55:13;;;;;;;;;11.00;6.50;;;;;;;;3728498;38;18259;-72
2020/10/18 10:57:40;;;;;;;;;7.75;5.00;;;;;;;;3728537;38;21087;-63
2020/10/18 11:00:06;;;;;;;;;9.00;6.00;;;;;;;;3728268;38;21078;-65
2020/10/18 11:02:33;;;;;;;;;10.50;7.00;;;;;;;;3728315;37;20980;-62
2020/10/18 11:04:59;;;;;;;;;9.25;6.00;;;;;;;;3728260;37;21080;-66
2020/10/18 11:07:27;;;;;;;;;10.25;6.25;;;;;;;;3728566;38;21077;-67
2020/10/18 11:09:55;;;;;;;;;9.75;6.00;;;;;;;;3728653;38;18265;-67
2020/10/18 11:12:21;;;;;;;;;18.50;11.50;;;;;;;;3728192;38;21073;-66
2020/10/18 11:14:47;;;;;;;;;53.50;38.00;;;;;;;;3728697;37;21102;-66
2020/10/18 11:17:33;;;;;;;;;38.50;30.00;;;;;;;;3728537;38;18240;-67
2020/10/18 11:20:03;;;;;;;;;42.25;32.50;;;;;;;;3727896;38;21001;-65
2020/10/18 11:22:29;;;;;;;;;51.75;40.25;;;;;;;;3728277;38;21018;-67
2020/10/18 11:24:56;;;;;;;;;61.00;47.25;;;;;;;;3728445;38;21059;-70
2020/10/18 11:27:23;;;;;;;;;61.25;48.00;;;;;;;;3728713;37;21067;-71
2020/10/18 11:29:49;;;;;;;;;62.75;46.75;;;;;;;;3728740;37;21080;-67
2020/10/18 11:32:15;;;;;;;;;61.00;45.50;;;;;;;;3727631;37;21072;-64
2020/10/18 11:34:41;;;;;;;;;62.25;46.75;;;;;;;;3727294;38;21087;-62
2020/10/18 11:37:07;;;;;;;;;53.00;43.75;;;;;;;;3727466;37;21041;-64
2020/10/18 11:39:33;;;;;;;;;53.25;41.50;;;;;;;;3727904;38;18242;-64
2020/10/18 11:42:01;;;;;;;;;49.75;39.00;;;;;;;;3727691;37;18240;-65
2020/10/18 11:44:28;;;;;;;;;50.00;38.00;;;;;;;;3727580;37;21049;-64
2020/10/18 11:46:55;;;;;;;;;45.25;36.00;;;;;;;;3728227;37;21037;-69
2020/10/18 11:51:11;;;;;;;;;38.25;32.75;;;;;;;;3694850;38;68943;-60
2020/10/18 11:58:25;;;;;;;;;38.75;29.50;;;;;;;;3728736;38;39286;-60
2020/10/18 12:00:51;;;;;;;;;31.25;27.25;;;;;;;;3728982;37;21066;-63
2020/10/18 12:03:17;;;;;;;;;34.00;27.00;;;;;;;;3728234;38;20934;-62
2020/10/18 12:05:43;;;;;;;;;24.50;19.50;;;;;;;;3728347;37;18306;-62
2020/10/18 12:08:09;;;;;;;;;27.00;21.25;;;;;;;;3728408;37;18278;-60
2020/10/18 12:10:34;;;;;;;;;31.25;21.75;;;;;;;;3728408;37;18298;-62
2020/10/18 12:13:00;;;;;;;;;27.25;21.50;;;;;;;;3728338;37;18276;-57
2020/10/18 12:15:26;;;;;;;;;26.00;20.50;;;;;;;;3728382;38;18302;-57
2020/10/18 12:17:52;;;;;;;;;23.25;21.50;;;;;;;;3728162;37;18268;-57
2020/10/18 12:20:18;;;;;;;;;22.25;19.50;;;;;;;;3728378;38;18272;-57
2020/10/18 12:22:44;;;;;;;;;23.25;17.50;;;;;;;;3728472;37;18256;-57
2020/10/18 12:25:10;;;;;;;;;32.00;22.25;;;;;;;;3728224;37;20938;-57
2020/10/18 12:27:36;;;;;;;;;23.50;21.00;;;;;;;;3728401;37;18243;-57
2020/10/18 12:30:03;;;;;;;;;20.50;17.00;;;;;;;;3728426;38;18259;-56
2020/10/18 12:32:30;;;;;;;;;22.50;15.00;;;;;;;;3728370;37;18261;-57
2020/10/18 12:34:56;;;;;;;;;17.75;15.75;;;;;;;;3728203;38;21002;-57
2020/10/18 12:37:22;;;;;;;;;20.75;18.75;;;;;;;;3728289;38;20988;-57
2020/10/18 12:39:47;;;;;;;;;19.00;17.00;;;;;;;;3728496;37;18271;-57
2020/10/18 12:42:13;;;;;;;;;22.25;16.75;;;;;;;;3728300;38;18252;-56
2020/10/18 12:44:39;;;;;;;;;17.00;16.25;;;;;;;;3728496;37;18258;-56
2020/10/18 12:47:05;;;;;;;;;18.75;15.75;;;;;;;;3728339;38;18221;-57
2020/10/18 12:49:31;;;;;;;;;16.25;12.25;;;;;;;;3728359;37;18221;-57
2020/10/18 12:51:57;;;;;;;;;15.50;14.50;;;;;;;;3728322;38;18214;-57
2020/10/18 12:54:24;;;;;;;;;16.50;14.50;;;;;;;;3728369;38;18251;-57
2020/10/18 12:56:49;;;;;;;;;17.25;14.25;;;;;;;;3728108;37;18271;-56
2020/10/18 12:59:15;;;;;;;;;19.50;14.00;;;;;;;;3728009;38;21435;-57
2020/10/18 13:01:41;;;;;;;;;18.50;15.25;;;;;;;;3728191;38;18262;-57
2020/10/18 13:04:07;;;;;;;;;15.75;11.00;;;;;;;;3728062;38;18240;-57
2020/10/18 13:06:33;;;;;;;;;12.25;11.25;;;;;;;;3728091;38;18250;-57
2020/10/18 13:08:59;;;;;;;;;12.25;11.00;;;;;;;;3727586;37;18265;-57
2020/10/18 13:11:25;;;;;;;;;15.50;11.25;;;;;;;;3728169;38;21420;-56
2020/10/18 13:13:51;;;;;;;;;16.50;11.75;;;;;;;;3728189;38;18254;-57
2020/10/18 13:16:18;;;;;;;;;14.00;10.25;;;;;;;;3727991;37;21411;-56
2020/10/18 13:18:45;;;;;;;;;11.75;10.25;;;;;;;;3728165;37;18219;-56
2020/10/18 13:21:12;;;;;;;;;9.75;8.50;;;;;;;;3728188;37;21408;-56
2020/10/18 13:23:38;;;;;;;;;11.00;10.00;;;;;;;;3728085;38;21264;-56
2020/10/18 13:26:04;;;;;;;;;13.25;10.00;;;;;;;;3728210;37;21412;-57
2020/10/18 13:28:30;;;;;;;;;11.00;8.00;;;;;;;;3728444;38;18211;-57
2020/10/18 13:30:57;;;;;;;;;10.00;8.00;;;;;;;;3728168;37;18224;-56
2020/10/18 13:33:24;;;;;;;;;10.00;8.50;;;;;;;;3728212;38;18202;-57
2020/10/18 13:35:50;;;;;;;;;9.75;8.75;;;;;;;;3728073;37;21351;-56
2020/10/18 13:38:16;;;;;;;;;9.75;8.00;;;;;;;;3728064;38;21289;-56
2020/10/18 13:40:42;;;;;;;;;9.75;9.00;;;;;;;;3728151;37;21128;-57
2020/10/18 13:43:08;;;;;;;;;13.25;9.75;;;;;;;;3727988;38;21315;-57
2020/10/18 13:45:34;;;;;;;;;8.00;7.00;;;;;;;;3728150;38;21345;-56
2020/10/18 13:48:00;;;;;;;;;8.50;8.00;;;;;;;;3728193;38;21079;-56
2020/10/18 13:50:26;;;;;;;;;9.25;9.00;;;;;;;;3728685;37;18173;-63
2020/10/18 13:52:52;;;;;;;;;12.50;9.25;;;;;;;;3728416;37;18193;-60
2020/10/18 13:55:18;;;;;;;;;10.00;7.50;;;;;;;;3728133;37;21293;-57
2020/10/18 13:57:51;;;;;;;;;7.75;7.25;;;;;;;;3728438;37;21334;-58
2020/10/18 14:00:19;;;;;;;;;8.00;6.25;;;;;;;;3728308;38;18164;-58
2020/10/18 14:02:45;;;;;;;;;11.00;8.75;;;;;;;;3728179;37;21294;-58
2020/10/18 14:05:11;;;;;;;;;10.25;7.50;;;;;;;;3728128;38;21272;-59
2020/10/18 14:07:38;;;;;;;;;7.00;3.25;;;;;;;;3728280;37;21164;-61
2020/10/18 14:10:04;;;;;;;;;7.00;6.00;;;;;;;;3728322;37;21045;-61
2020/10/18 14:12:30;;;;;;;;;11.25;9.50;;;;;;;;3728102;37;21127;-58
2020/10/18 14:14:56;;;;;;;;;10.00;9.00;;;;;;;;3728264;38;21528;-57
2020/10/18 14:17:22;;;;;;;;;8.25;7.00;;;;;;;;3728274;37;18150;-59
2020/10/18 14:19:48;;;;;;;;;9.50;7.25;;;;;;;;3727208;37;21091;-60
2020/10/18 14:22:14;;;;;;;;;12.75;10.50;;;;;;;;3727572;37;18142;-58
2020/10/18 14:24:40;;;;;;;;;8.00;7.00;;;;;;;;3727767;38;21331;-58
2020/10/18 14:27:06;;;;;;;;;11.75;9.00;;;;;;;;3728194;37;18146;-61
2020/10/18 14:29:32;;;;;;;;;8.75;8.50;;;;;;;;3728323;38;18121;-58
2020/10/18 14:31:58;;;;;;;;;12.50;8.75;;;;;;;;3728158;38;21100;-58
2020/10/18 14:34:24;;;;;;;;;9.00;7.00;;;;;;;;3728086;38;18138;-59
2020/10/18 14:36:50;;;;;;;;;10.75;8.50;;;;;;;;3728257;37;18121;-57
2020/10/18 14:39:16;;;;;;;;;13.50;7.75;;;;;;;;3728230;38;18122;-58
2020/10/18 14:41:42;;;;;;;;;11.00;7.75;;;;;;;;3728133;38;18116;-60
2020/10/18 14:44:08;;;;;;;;;9.00;7.00;;;;;;;;3728103;37;18121;-58
2020/10/18 14:46:34;;;;;;;;;17.00;9.75;;;;;;;;3728100;38;20846;-60
2020/10/18 14:49:00;;;;;;;;;10.00;7.75;;;;;;;;3727838;38;18127;-59
2020/10/18 14:51:26;;;;;;;;;12.25;9.50;;;;;;;;3728097;37;21232;-60
2020/10/18 14:53:52;;;;;;;;;9.25;8.75;;;;;;;;3728361;37;18096;-60
2020/10/18 14:56:18;;;;;;;;;10.00;8.75;;;;;;;;3728058;37;18100;-58
2020/10/18 14:58:44;;;;;;;;;10.75;8.25;;;;;;;;3728264;38;18108;-57
2020/10/18 15:01:10;;;;;;;;;13.50;8.00;;;;;;;;3728330;38;18112;-57
2020/10/18 15:03:36;;;;;;;;;9.75;8.50;;;;;;;;3728216;38;21251;-59
2020/10/18 15:06:02;;;;;;;;;13.75;9.75;;;;;;;;3727973;37;21263;-60
2020/10/18 15:08:28;;;;;;;;;12.50;8.75;;;;;;;;3728281;38;18062;-57
2020/10/18 15:10:54;;;;;;;;;14.00;9.75;;;;;;;;3728272;38;18083;-58
2020/10/18 15:13:20;;;;;;;;;11.75;8.75;;;;;;;;3728287;38;21106;-58
2020/10/18 15:15:46;;;;;;;;;16.75;11.50;;;;;;;;3728175;37;21210;-58
2020/10/18 15:18:12;;;;;;;;;11.75;9.25;;;;;;;;3728355;37;18087;-58
2020/10/18 15:20:38;;;;;;;;;12.50;9.75;;;;;;;;3728196;38;21261;-61
2020/10/18 15:23:04;;;;;;;;;13.75;11.25;;;;;;;;3728258;37;18051;-58
2020/10/18 15:25:30;;;;;;;;;9.75;8.75;;;;;;;;3728204;37;18071;-58
2020/10/18 15:27:56;;;;;;;;;9.25;8.75;;;;;;;;3728149;37;18061;-55
2020/10/18 15:30:22;;;;;;;;;9.00;6.25;;;;;;;;3728225;37;18059;-59
2020/10/18 15:32:48;;;;;;;;;13.75;10.00;;;;;;;;3727393;37;18042;-59
